Terminal Aerodrome Forecast
Issued by NWS Charleston, WV

Current Version | Previous Version | Graphics & Text | Print | Product List | Glossary On
Versions: 1 2 3 4 5 6 7 8 9 10 11 12 13 14 15 16 17 18 19 20 21 22 23 24
000
FTUS41 KRLX 192300
TAFHTS
TAF
KHTS 192328Z 2000/2024 VRB03KT P6SM SKC
     FM200100 13006KT P6SM SCT050
      TEMPO 2001/2003 BKN040
     FM201000 17002KT 6SM BR SCT002 SCT080
     FM201300 17003KT 6SM HZ SCT080
     FM201500 19008KT P6SM SCT040
     FM202300 18005KT P6SM SCT080=

USA.gov is the U.S. government's official web portal to all federal, state and local government web resources and services.